Time;durP1;ratioP1;P1;durP2;ratioP2;P2;SDS_P1;SDS_P2;PMS_P1;PMS_P2;Temp;Humidity;BMP_temperature;BMP_pressure;BME280_temperature;BME280_humidity;BME280_pressure;Samples;Min_cycle;Max_cycle;Signal;HPM_P1;HPM_P2
2022/04/06 00:00:25;;;;;;;4.93;3.03;;;8.80;69.60;;;;;;4995114;28;20193;-75
2022/04/06 00:02:51;;;;;;;2.53;2.43;;;8.80;70.30;;;;;;4996898;28;20723;-75
2022/04/06 00:05:17;;;;;;;4.27;2.70;;;8.80;70.00;;;;;;4996649;28;20200;-75
2022/04/06 00:07:43;;;;;;;2.93;2.73;;;8.80;70.30;;;;;;4997989;28;20347;-75
2022/04/06 00:10:11;;;;;;;2.63;2.53;;;8.80;70.20;;;;;;4995703;28;20186;-75
2022/04/06 00:12:38;;;;;;;2.80;2.70;;;8.80;70.80;;;;;;4993965;28;20193;-74
2022/04/06 00:15:09;;;;;;;3.43;3.07;;;8.80;71.20;;;;;;4994026;28;20660;-73
2022/04/06 00:17:36;;;;;;;3.20;2.70;;;8.70;70.80;;;;;;4994815;28;20185;-73
2022/04/06 00:20:02;;;;;;;5.13;3.33;;;8.70;71.40;;;;;;4995757;28;20185;-73
2022/04/06 00:22:28;;;;;;;3.83;3.30;;;8.60;70.80;;;;;;4996117;28;20232;-72
2022/04/06 00:24:54;;;;;;;5.37;3.27;;;8.50;71.40;;;;;;4990897;28;20212;-73
2022/04/06 00:27:19;;;;;;;4.20;3.80;;;8.50;71.30;;;;;;4993343;28;20688;-73
2022/04/06 00:29:45;;;;;;;4.93;3.60;;;8.40;70.90;;;;;;4996296;28;20184;-73
2022/04/06 00:32:11;;;;;;;3.37;3.10;;;8.40;71.60;;;;;;4994156;28;20323;-73
2022/04/06 00:37:21;;;;;;;3.83;3.40;;;8.40;72.30;;;;;;4993133;28;20220;-73
2022/04/06 00:39:47;;;;;;;3.60;3.17;;;8.40;72.50;;;;;;5001516;28;20240;-72
2022/04/06 00:42:13;;;;;;;3.70;3.40;;;8.40;72.80;;;;;;4994707;28;20194;-73
2022/04/06 00:44:39;;;;;;;5.13;3.10;;;8.40;72.60;;;;;;4995092;28;20185;-73
2022/04/06 00:47:06;;;;;;;3.47;3.27;;;8.30;72.70;;;;;;4992881;28;20603;-73
2022/04/06 00:49:33;;;;;;;3.43;3.23;;;8.30;72.60;;;;;;4992679;28;20186;-72
2022/04/06 00:52:01;;;;;;;4.43;3.17;;;8.20;72.50;;;;;;4994440;28;20189;-73
2022/04/06 00:54:29;;;;;;;4.87;2.97;;;8.20;72.40;;;;;;4992560;28;20192;-73
2022/04/06 00:56:56;;;;;;;3.40;3.20;;;8.20;73.00;;;;;;4994970;28;20655;-73
2022/04/06 00:59:22;;;;;;;5.43;3.57;;;8.10;72.30;;;;;;4993896;28;20612;-73
2022/04/06 01:01:50;;;;;;;3.93;3.60;;;8.10;71.80;;;;;;4991710;28;20197;-73
2022/04/06 01:04:17;;;;;;;3.90;3.50;;;8.10;71.70;;;;;;4996392;28;20643;-73
2022/04/06 01:06:44;;;;;;;3.37;3.10;;;8.00;72.20;;;;;;4990866;28;20196;-73
2022/04/06 01:09:10;;;;;;;4.03;3.53;;;8.00;72.50;;;;;;4991490;28;20220;-73
2022/04/06 01:11:37;;;;;;;7.00;4.13;;;8.00;72.80;;;;;;4997799;28;20213;-73
2022/04/06 01:14:03;;;;;;;6.33;3.70;;;8.00;72.80;;;;;;4996086;28;20181;-73
2022/04/06 01:16:29;;;;;;;4.83;3.77;;;8.00;72.90;;;;;;4993186;28;20185;-73
2022/04/06 01:18:55;;;;;;;6.80;4.30;;;8.00;72.80;;;;;;4994471;28;20207;-73
2022/04/06 01:21:21;;;;;;;3.53;3.00;;;7.90;72.90;;;;;;4990219;28;20241;-73
2022/04/06 01:23:47;;;;;;;4.40;4.10;;;7.90;73.10;;;;;;4993975;28;20176;-73
2022/04/06 01:26:13;;;;;;;7.83;4.00;;;7.90;73.10;;;;;;4992766;28;20190;-73
2022/04/06 01:28:40;;;;;;;6.20;4.07;;;7.90;72.40;;;;;;4994743;28;20214;-73
2022/04/06 01:31:07;;;;;;;10.57;4.97;;;7.90;71.90;;;;;;4994157;28;20186;-73
2022/04/06 01:33:33;;;;;;;6.77;4.50;;;7.90;71.40;;;;;;4998304;28;20185;-73
2022/04/06 01:36:00;;;;;;;5.10;3.90;;;7.80;71.40;;;;;;4998417;28;22125;-74
2022/04/06 01:38:26;;;;;;;6.17;4.07;;;7.80;70.90;;;;;;4992099;28;20186;-73
2022/04/06 01:40:53;;;;;;;7.07;4.30;;;7.70;70.70;;;;;;4988770;28;20588;-73
2022/04/06 01:43:19;;;;;;;5.67;4.07;;;7.70;71.50;;;;;;4993113;28;20173;-73
2022/04/06 01:45:46;;;;;;;5.63;4.10;;;7.70;71.50;;;;;;4993890;28;20680;-73
2022/04/06 01:48:14;;;;;;;5.67;3.90;;;7.60;71.50;;;;;;4990756;28;20205;-72
2022/04/06 01:53:25;;;;;;;6.20;4.43;;;7.60;71.90;;;;;;4992538;28;20678;-72
2022/04/06 01:55:50;;;;;;;3.90;3.60;;;7.60;72.10;;;;;;4991795;28;20193;-72
2022/04/06 01:58:17;;;;;;;3.80;3.43;;;7.50;71.70;;;;;;4997294;28;20732;-72
2022/04/06 02:00:43;;;;;;;4.40;3.43;;;7.50;71.50;;;;;;4994557;28;20196;-72
2022/04/06 02:03:09;;;;;;;6.07;4.07;;;7.50;71.50;;;;;;4993733;28;20186;-72
2022/04/06 02:05:35;;;;;;;5.40;3.73;;;7.40;71.50;;;;;;4998947;28;20316;-74
2022/04/06 02:08:01;;;;;;;7.00;3.63;;;7.40;71.50;;;;;;4995859;28;21030;-74
2022/04/06 02:10:28;;;;;;;4.90;3.77;;;7.40;72.10;;;;;;4990261;28;20205;-73
2022/04/06 02:12:58;;;;;;;4.30;3.90;;;7.40;72.10;;;;;;4994470;28;20182;-72
2022/04/06 02:15:30;;;;;;;12.50;3.53;;;7.40;72.00;;;;;;4990884;28;20181;-72
2022/04/06 02:17:57;;;;;;;4.13;3.80;;;7.40;72.40;;;;;;5019962;28;20233;-72
2022/04/06 02:20:22;;;;;;;3.47;3.20;;;7.40;72.60;;;;;;4996354;28;20186;-72
2022/04/06 02:22:48;;;;;;;4.90;3.67;;;7.40;72.60;;;;;;4991699;28;20190;-72
2022/04/06 02:25:14;;;;;;;5.90;4.03;;;7.40;72.40;;;;;;4993111;28;20177;-73
2022/04/06 02:27:49;;;;;;;3.63;3.40;;;7.40;72.00;;;;;;4989344;28;20218;-74
2022/04/06 02:30:15;;;;;;;5.50;4.00;;;7.30;71.80;;;;;;4991114;28;20211;-72
2022/04/06 02:32:41;;;;;;;4.13;3.83;;;7.30;71.80;;;;;;4989674;28;20189;-72
2022/04/06 02:35:07;;;;;;;6.50;3.93;;;7.30;71.40;;;;;;4991857;28;20181;-73
2022/04/06 02:37:33;;;;;;;5.00;4.33;;;7.20;71.10;;;;;;4992976;28;20282;-73
2022/04/06 02:39:58;;;;;;;7.47;4.67;;;7.20;71.00;;;;;;4994310;28;20276;-73
2022/04/06 02:42:24;;;;;;;5.27;4.47;;;7.20;71.30;;;;;;4993598;28;20223;-73
2022/04/06 02:44:50;;;;;;;6.83;4.17;;;7.10;70.70;;;;;;4990756;28;20193;-72
2022/04/06 02:47:16;;;;;;;7.50;3.57;;;7.10;71.00;;;;;;4993545;28;20205;-73
2022/04/06 02:49:41;;;;;;;3.93;3.57;;;7.10;71.50;;;;;;4993094;28;20189;-73
2022/04/06 02:52:08;;;;;;;3.43;3.13;;;7.10;71.80;;;;;;4991002;28;20736;-73
2022/04/06 02:54:33;;;;;;;4.10;3.67;;;7.10;72.00;;;;;;4993005;28;20185;-73
2022/04/06 02:56:59;;;;;;;4.73;3.47;;;7.00;72.10;;;;;;4989050;28;20177;-73
2022/04/06 02:59:25;;;;;;;5.20;3.47;;;7.00;72.30;;;;;;4990822;28;20324;-73
2022/04/06 03:01:51;;;;;;;6.27;4.83;;;7.00;72.30;;;;;;4989922;28;20216;-73
2022/04/06 03:04:17;;;;;;;3.93;3.63;;;7.00;72.70;;;;;;4991923;28;20232;-73
2022/04/06 03:06:42;;;;;;;8.80;4.30;;;7.00;72.60;;;;;;4992108;28;20181;-73
2022/04/06 03:09:08;;;;;;;5.03;4.40;;;7.00;72.70;;;;;;4992146;28;20220;-72
2022/04/06 03:11:35;;;;;;;4.30;3.90;;;6.90;73.00;;;;;;4991843;28;20181;-73
2022/04/06 03:14:00;;;;;;;7.00;4.17;;;6.90;73.00;;;;;;4993388;28;20752;-73
2022/04/06 03:16:26;;;;;;;5.87;4.20;;;6.90;73.40;;;;;;4992050;28;20185;-73
2022/04/06 03:18:52;;;;;;;5.00;4.03;;;6.90;73.70;;;;;;4991855;28;20228;-74
2022/04/06 03:21:18;;;;;;;6.83;4.80;;;6.90;73.70;;;;;;4993739;28;20192;-73
2022/04/06 03:23:44;;;;;;;4.03;3.70;;;6.80;73.50;;;;;;4991443;28;20186;-73
2022/04/06 03:26:11;;;;;;;5.23;4.30;;;6.80;73.20;;;;;;4993865;28;21152;-72
2022/04/06 03:28:38;;;;;;;6.90;4.40;;;6.80;73.50;;;;;;4990139;28;20636;-74
2022/04/06 03:31:05;;;;;;;5.80;4.60;;;6.80;73.60;;;;;;4996212;28;20296;-74
2022/04/06 03:33:31;;;;;;;9.77;5.00;;;6.70;73.70;;;;;;4990218;28;20194;-74
2022/04/06 03:35:57;;;;;;;11.13;5.17;;;6.70;73.70;;;;;;4993083;28;20568;-74
2022/04/06 03:38:23;;;;;;;5.73;5.03;;;6.70;73.30;;;;;;4990393;28;20193;-74
2022/04/06 03:40:49;;;;;;;6.13;4.90;;;6.70;73.20;;;;;;4988402;28;20672;-74
2022/04/06 03:43:15;;;;;;;5.77;4.80;;;6.60;73.40;;;;;;4992607;28;20882;-73
2022/04/06 03:45:40;;;;;;;6.50;4.87;;;6.60;73.70;;;;;;4997460;28;20186;-73
2022/04/06 03:48:06;;;;;;;5.67;5.00;;;6.60;73.80;;;;;;4995530;28;20219;-74
2022/04/06 03:50:32;;;;;;;6.97;5.03;;;6.60;74.00;;;;;;4996981;28;20208;-73
2022/04/06 03:52:58;;;;;;;7.63;5.10;;;6.60;74.10;;;;;;4999216;28;20204;-73
2022/04/06 03:55:24;;;;;;;5.93;5.07;;;6.60;74.30;;;;;;4995285;28;20190;-72
2022/04/06 03:57:50;;;;;;;7.30;5.10;;;6.60;74.40;;;;;;4996751;28;20189;-73
2022/04/06 04:00:16;;;;;;;8.53;4.90;;;6.60;74.40;;;;;;4998131;28;20181;-72
2022/04/06 04:02:42;;;;;;;5.63;4.87;;;6.60;73.80;;;;;;4993235;28;20620;-74
2022/04/06 04:05:08;;;;;;;7.63;5.20;;;6.50;73.80;;;;;;4994044;28;20193;-74
2022/04/06 04:07:37;;;;;;;9.60;4.93;;;6.50;73.70;;;;;;4994497;28;20206;-73
2022/04/06 04:10:07;;;;;;;6.90;5.73;;;6.50;73.80;;;;;;4993823;28;20182;-73
2022/04/06 04:12:34;;;;;;;5.83;5.17;;;6.50;74.30;;;;;;4994666;28;20605;-73
2022/04/06 04:15:00;;;;;;;7.33;5.07;;;6.40;74.10;;;;;;4990921;28;20193;-74
2022/04/06 04:17:26;;;;;;;7.87;5.70;;;6.40;74.30;;;;;;4996358;28;20197;-73
2022/04/06 04:19:51;;;;;;;6.47;4.83;;;6.40;74.30;;;;;;4997610;28;20186;-74
2022/04/06 04:22:17;;;;;;;9.03;4.27;;;6.40;74.00;;;;;;4997360;28;20732;-73
2022/04/06 04:24:43;;;;;;;11.73;5.57;;;6.30;74.20;;;;;;4992650;28;20189;-73
2022/04/06 04:27:08;;;;;;;7.93;5.17;;;6.40;74.60;;;;;;4994190;28;20327;-73
2022/04/06 04:29:34;;;;;;;7.50;5.30;;;6.30;74.50;;;;;;4993291;28;20264;-74
2022/04/06 04:32:00;;;;;;;6.60;5.37;;;6.30;74.90;;;;;;4995746;28;20209;-73
2022/04/06 04:34:26;;;;;;;6.37;4.73;;;6.30;74.70;;;;;;4994993;28;20178;-74
2022/04/06 04:36:53;;;;;;;6.43;4.60;;;6.30;74.70;;;;;;4997150;28;20185;-73
2022/04/06 04:39:19;;;;;;;5.90;4.47;;;6.30;74.70;;;;;;4994642;28;20193;-73
2022/04/06 04:41:45;;;;;;;9.03;4.70;;;6.30;74.90;;;;;;4999151;28;20182;-74
2022/04/06 04:44:12;;;;;;;8.93;5.73;;;6.30;74.80;;;;;;4996326;28;20690;-74
2022/04/06 04:46:37;;;;;;;9.07;5.83;;;6.40;75.00;;;;;;4995086;28;20663;-73
2022/04/06 04:49:03;;;;;;;5.63;5.13;;;6.40;75.10;;;;;;4994450;28;20216;-73
2022/04/06 04:51:29;;;;;;;5.77;4.53;;;6.40;74.90;;;;;;4997249;28;20214;-73
2022/04/06 04:53:57;;;;;;;5.13;4.70;;;6.40;74.90;;;;;;4993088;28;20189;-74
2022/04/06 04:56:24;;;;;;;11.13;5.57;;;6.40;75.00;;;;;;4987501;28;20245;-73
2022/04/06 04:58:51;;;;;;;7.93;5.60;;;6.50;75.30;;;;;;5021348;28;20759;-73
2022/04/06 05:01:17;;;;;;;7.77;5.53;;;6.50;75.20;;;;;;4993188;28;20600;-73
2022/04/06 05:03:43;;;;;;;9.93;5.53;;;6.50;75.10;;;;;;4995688;28;20185;-73
2022/04/06 05:06:09;;;;;;;9.47;5.90;;;6.50;75.00;;;;;;4992764;28;20569;-74
2022/04/06 05:08:34;;;;;;;10.27;5.90;;;6.50;75.10;;;;;;4996241;28;20243;-72
2022/04/06 05:11:00;;;;;;;6.87;5.90;;;6.60;75.70;;;;;;4996434;28;20178;-74
2022/04/06 05:13:26;;;;;;;8.63;6.00;;;6.60;75.60;;;;;;4990015;28;20186;-72
2022/04/06 05:15:52;;;;;;;10.17;6.23;;;6.60;75.50;;;;;;4996860;28;20692;-73
2022/04/06 05:18:18;;;;;;;9.90;6.10;;;6.60;75.10;;;;;;4987710;28;20272;-73
2022/04/06 05:20:43;;;;;;;6.63;4.90;;;6.60;75.50;;;;;;4995273;28;20193;-73
2022/04/06 05:23:09;;;;;;;9.50;6.27;;;6.50;75.40;;;;;;4992296;28;20190;-78
2022/04/06 05:25:35;;;;;;;10.83;6.13;;;6.60;75.40;;;;;;4989239;28;20277;-74
2022/04/06 05:28:01;;;;;;;9.77;6.43;;;6.60;75.70;;;;;;4990281;28;20264;-72
2022/04/06 05:30:27;;;;;;;8.83;5.83;;;6.50;75.80;;;;;;4988892;28;20555;-72
2022/04/06 05:32:55;;;;;;;16.57;6.97;;;6.60;75.70;;;;;;4990499;28;20270;-74
2022/04/06 05:35:23;;;;;;;7.83;6.40;;;6.60;75.30;;;;;;4991094;28;20188;-72
2022/04/06 05:37:49;;;;;;;14.20;6.53;;;6.60;75.20;;;;;;4994269;28;20177;-75
2022/04/06 05:40:17;;;;;;;9.33;5.63;;;6.60;75.30;;;;;;4990979;28;20239;-74
2022/04/06 05:42:43;;;;;;;6.70;5.80;;;6.70;75.60;;;;;;4995842;28;20572;-75
2022/04/06 05:45:09;;;;;;;14.00;5.67;;;6.70;75.10;;;;;;4992520;28;20872;-76
2022/04/06 05:47:36;;;;;;;8.47;4.97;;;6.80;74.80;;;;;;4995345;28;20211;-73
2022/04/06 05:50:03;;;;;;;6.07;4.93;;;6.80;74.60;;;;;;4990449;28;20177;-73
2022/04/06 05:52:29;;;;;;;5.60;4.90;;;6.90;74.50;;;;;;4993405;28;20194;-72
2022/04/06 05:54:54;;;;;;;7.17;5.17;;;7.00;74.50;;;;;;4990904;28;20185;-72
2022/04/06 05:57:20;;;;;;;9.43;6.03;;;7.00;74.30;;;;;;4988822;28;20189;-73
2022/04/06 05:59:46;;;;;;;12.30;5.57;;;7.10;74.10;;;;;;4992428;28;20181;-72
2022/04/06 06:02:13;;;;;;;8.50;5.50;;;7.20;73.80;;;;;;4993870;28;20184;-73
2022/04/06 06:04:39;;;;;;;6.93;5.43;;;7.20;75.40;;;;;;4995516;28;20272;-74
2022/04/06 06:07:05;;;;;;;8.67;6.03;;;7.30;75.20;;;;;;4992786;28;20200;-74
2022/04/06 06:09:31;;;;;;;7.87;5.57;;;7.50;76.40;;;;;;4994457;28;20675;-73
2022/04/06 06:11:58;;;;;;;6.73;5.23;;;7.60;76.80;;;;;;4996642;28;20187;-72
2022/04/06 06:14:24;;;;;;;7.47;5.43;;;7.70;75.40;;;;;;4994618;28;20891;-72
2022/04/06 06:16:50;;;;;;;8.23;5.53;;;7.80;74.90;;;;;;4993928;28;20195;-72
2022/04/06 06:19:16;;;;;;;5.97;5.33;;;7.90;75.30;;;;;;4994174;28;20178;-71
2022/04/06 06:21:42;;;;;;;8.17;5.20;;;8.00;74.30;;;;;;4992997;28;20268;-72
2022/04/06 06:24:08;;;;;;;7.50;5.90;;;8.10;74.70;;;;;;4994803;28;20268;-72
2022/04/06 06:26:35;;;;;;;8.27;5.93;;;8.20;74.70;;;;;;4991182;28;20185;-71
2022/04/06 06:29:01;;;;;;;5.43;4.90;;;8.30;73.10;;;;;;4993125;28;20248;-72
2022/04/06 06:31:28;;;;;;;5.10;4.23;;;8.30;72.80;;;;;;4987819;28;20184;-71
2022/04/06 06:33:54;;;;;;;5.40;4.90;;;8.40;74.00;;;;;;4990430;28;20187;-73
2022/04/06 06:36:20;;;;;;;8.50;5.67;;;8.50;72.60;;;;;;4992814;28;21010;-73
2022/04/06 06:38:45;;;;;;;6.37;4.33;;;8.60;72.40;;;;;;4992584;28;20216;-73
2022/04/06 06:41:11;;;;;;;6.37;4.50;;;8.60;72.60;;;;;;4990444;28;20187;-74
2022/04/06 06:43:37;;;;;;;6.07;4.13;;;8.70;74.20;;;;;;4995043;28;20186;-71
2022/04/06 06:46:02;;;;;;;4.27;3.97;;;8.80;73.90;;;;;;4992294;28;20181;-74
2022/04/06 06:48:28;;;;;;;5.13;4.63;;;8.90;75.70;;;;;;4992753;28;20338;-72
2022/04/06 06:50:54;;;;;;;7.97;4.63;;;9.00;74.30;;;;;;4995438;28;20214;-71
2022/04/06 06:53:20;;;;;;;6.77;4.80;;;9.10;74.40;;;;;;4992195;28;20659;-72
2022/04/06 06:55:46;;;;;;;6.20;4.77;;;9.20;74.00;;;;;;4992201;28;20189;-72
2022/04/06 06:58:12;;;;;;;9.30;4.93;;;9.30;73.30;;;;;;4990505;28;20246;-72
2022/04/06 07:00:38;;;;;;;5.73;4.73;;;9.40;73.10;;;;;;4986934;28;20183;-72
2022/04/06 07:03:04;;;;;;;11.03;5.37;;;9.40;72.90;;;;;;4987795;28;20232;-73
2022/04/06 07:05:30;;;;;;;8.90;5.27;;;9.50;72.80;;;;;;4994833;28;20200;-73
2022/04/06 07:07:58;;;;;;;7.87;5.80;;;9.60;72.50;;;;;;4993461;28;20221;-72
2022/04/06 07:10:25;;;;;;;7.80;5.47;;;9.60;72.40;;;;;;4991902;28;20185;-73
2022/04/06 07:12:51;;;;;;;7.33;5.63;;;9.70;72.40;;;;;;4991474;28;20276;-74
2022/04/06 07:15:18;;;;;;;7.10;5.50;;;9.80;72.30;;;;;;4995208;28;20831;-73
2022/04/06 07:17:44;;;;;;;6.73;5.50;;;9.80;73.00;;;;;;4991380;28;20195;-72
2022/04/06 07:20:10;;;;;;;8.33;5.67;;;9.90;72.80;;;;;;4995865;28;20198;-73
2022/04/06 07:22:36;;;;;;;8.20;5.23;;;10.00;72.10;;;;;;4996775;28;20181;-73
2022/04/06 07:25:02;;;;;;;4.83;4.40;;;10.10;72.20;;;;;;4997433;28;20196;-73
2022/04/06 07:27:37;;;;;;;11.40;5.27;;;10.20;72.00;;;;;;4995989;28;20212;-73
2022/04/06 07:30:05;;;;;;;8.13;4.27;;;10.30;71.00;;;;;;4993522;28;20181;-72
2022/04/06 07:32:31;;;;;;;5.67;5.10;;;10.40;71.40;;;;;;5001028;28;20183;-73
2022/04/06 07:34:57;;;;;;;4.67;4.30;;;10.40;71.00;;;;;;4996888;28;20181;-73
2022/04/06 07:37:23;;;;;;;6.23;4.97;;;10.50;70.90;;;;;;4995170;28;20254;-73
2022/04/06 07:39:49;;;;;;;7.20;5.13;;;10.60;71.00;;;;;;4991340;28;20999;-73
2022/04/06 07:42:14;;;;;;;6.30;4.30;;;10.60;70.90;;;;;;4997134;28;20184;-73
2022/04/06 07:44:40;;;;;;;7.43;4.73;;;10.70;70.80;;;;;;4991892;28;20190;-73
2022/04/06 07:47:06;;;;;;;9.70;5.00;;;10.80;70.60;;;;;;4995987;28;21040;-73
2022/04/06 07:49:33;;;;;;;9.93;5.17;;;10.90;70.20;;;;;;4991119;28;20272;-74
2022/04/06 07:51:59;;;;;;;5.00;4.50;;;10.90;70.10;;;;;;4991602;28;20209;-72
2022/04/06 07:54:24;;;;;;;9.35;4.78;;;11.00;69.70;;;;;;4990142;28;20220;-72
2022/04/06 07:56:50;;;;;;;7.00;5.28;;;11.10;70.10;;;;;;4995155;28;20284;-73
2022/04/06 07:59:16;;;;;;;9.77;5.47;;;11.20;69.90;;;;;;4992267;28;20192;-73
2022/04/06 08:01:41;;;;;;;5.83;3.67;;;11.40;69.70;;;;;;4997642;28;20186;-73
2022/04/06 08:04:07;;;;;;;6.30;4.35;;;11.40;69.50;;;;;;4992251;28;20178;-74
2022/04/06 08:06:33;;;;;;;7.97;4.72;;;11.50;69.40;;;;;;4991836;28;20209;-74
2022/04/06 08:08:59;;;;;;;6.07;4.65;;;11.70;69.40;;;;;;4998084;28;20744;-72
2022/04/06 08:11:25;;;;;;;5.78;4.90;;;11.80;69.10;;;;;;4994823;28;20190;-73
2022/04/06 08:13:51;;;;;;;5.63;4.80;;;11.90;69.00;;;;;;4989401;28;20186;-73
2022/04/06 08:16:17;;;;;;;7.15;5.00;;;12.10;68.90;;;;;;4992046;28;20189;-73
2022/04/06 08:18:42;;;;;;;5.65;4.65;;;12.20;68.60;;;;;;4995103;28;20189;-72
2022/04/06 08:21:09;;;;;;;5.30;4.80;;;12.30;68.30;;;;;;4995842;28;20777;-73
2022/04/06 08:23:35;;;;;;;6.60;4.38;;;12.50;68.10;;;;;;4989281;28;20187;-72
2022/04/06 08:26:01;;;;;;;5.85;5.30;;;12.60;67.70;;;;;;4992847;28;20189;-73
2022/04/06 08:28:27;;;;;;;4.20;3.72;;;12.70;67.60;;;;;;4991702;28;20212;-74
2022/04/06 08:30:53;;;;;;;5.43;4.65;;;12.90;67.30;;;;;;4988415;28;20242;-74
2022/04/06 08:33:18;;;;;;;7.07;4.88;;;13.10;66.40;;;;;;4990101;28;20265;-75
2022/04/06 08:35:44;;;;;;;5.15;4.68;;;13.30;65.70;;;;;;4989459;28;20204;-74
2022/04/06 08:38:15;;;;;;;8.13;5.20;;;13.50;66.00;;;;;;4991007;28;20189;-73
2022/04/06 08:40:44;;;;;;;5.15;4.65;;;13.60;64.90;;;;;;4985694;28;20176;-74
2022/04/06 08:43:11;;;;;;;7.75;4.57;;;13.90;65.30;;;;;;4991251;28;20265;-74
2022/04/06 08:45:38;;;;;;;6.43;4.57;;;14.10;65.20;;;;;;4979854;28;20193;-74
2022/04/06 08:48:08;;;;;;;19.20;4.55;;;14.30;64.40;;;;;;4984936;28;20221;-74
2022/04/06 08:50:36;;;;;;;5.65;4.45;;;14.70;63.30;;;;;;4988419;28;20189;-74
2022/04/06 08:53:04;;;;;;;4.32;4.03;;;15.00;62.20;;;;;;4982507;28;20186;-74
2022/04/06 08:55:30;;;;;;;6.20;4.30;;;15.60;61.90;;;;;;4986309;28;20188;-74
2022/04/06 08:57:58;;;;;;;5.22;3.53;;;16.30;60.90;;;;;;4987163;28;20198;-74
2022/04/06 09:00:26;;;;;;;4.88;4.18;;;17.10;60.10;;;;;;4992228;28;20182;-73
2022/04/06 09:02:53;;;;;;;4.88;4.13;;;17.70;58.40;;;;;;4988428;28;20578;-74
2022/04/06 09:05:25;;;;;;;9.38;4.45;;;18.50;57.80;;;;;;4984492;28;20190;-74
2022/04/06 09:07:51;;;;;;;4.30;3.90;;;19.20;56.90;;;;;;4985927;28;20224;-72
2022/04/06 09:10:33;;;;;;;4.28;3.95;;;20.00;55.60;;;;;;4986878;28;20185;-72
2022/04/06 09:13:23;;;;;;;4.30;3.92;;;20.70;55.10;;;;;;4991338;28;20190;-74
2022/04/06 09:15:53;;;;;;;5.47;4.35;;;21.60;52.80;;;;;;4986726;28;20190;-74
2022/04/06 09:18:24;;;;;;;4.15;3.72;;;22.20;50.90;;;;;;4983557;28;20201;-75
2022/04/06 09:21:00;;;;;;;9.77;3.90;;;22.60;51.00;;;;;;4988352;28;20192;-75
2022/04/06 09:23:28;;;;;;;4.32;4.13;;;23.10;51.60;;;;;;4987343;28;20185;-76
2022/04/06 09:25:54;;;;;;;8.40;5.57;;;23.50;49.90;;;;;;4990368;28;20182;-76
2022/04/06 09:28:20;;;;;;;9.00;4.85;;;24.10;49.90;;;;;;4984917;28;20223;-76
2022/04/06 09:30:47;;;;;;;5.90;4.13;;;24.50;48.70;;;;;;4987316;28;20215;-76
2022/04/06 09:33:21;;;;;;;3.97;3.58;;;24.90;47.50;;;;;;4987286;28;20675;-76
2022/04/06 09:35:48;;;;;;;4.10;3.72;;;25.20;46.50;;;;;;4987138;28;20671;-75
2022/04/06 09:38:26;;;;;;;7.15;3.47;;;25.30;45.00;;;;;;4990530;28;20283;-76
2022/04/06 09:41:14;;;;;;;3.67;3.33;;;25.60;43.80;;;;;;4985992;28;20212;-76
2022/04/06 09:43:40;;;;;;;2.92;2.72;;;25.90;44.50;;;;;;4985910;28;20667;-75
2022/04/06 09:49:08;;;;;;;3.53;2.42;;;26.80;44.00;;;;;;4989715;28;20944;-76
2022/04/06 09:51:38;;;;;;;2.50;2.40;;;27.10;43.00;;;;;;5023017;28;20331;-75
2022/04/06 09:54:09;;;;;;;2.70;2.50;;;27.20;40.80;;;;;;4990704;28;20268;-74
2022/04/06 09:56:36;;;;;;;2.92;2.78;;;27.10;42.00;;;;;;4988664;28;20212;-75
2022/04/06 09:59:03;;;;;;;2.67;2.55;;;26.90;42.80;;;;;;4989042;28;20252;-76
2022/04/06 10:01:33;;;;;;;2.65;2.55;;;26.90;43.80;;;;;;4989367;28;21745;-76
2022/04/06 10:04:06;;;;;;;2.50;2.30;;;27.20;42.90;;;;;;4986865;28;20807;-76
2022/04/06 10:06:36;;;;;;;2.95;2.53;;;27.70;44.20;;;;;;4989982;28;20766;-74
2022/04/06 10:09:06;;;;;;;2.35;2.28;;;28.50;43.10;;;;;;4988083;28;20623;-74
2022/04/06 10:11:39;;;;;;;2.55;2.38;;;29.20;42.40;;;;;;4988093;28;20260;-75
2022/04/06 10:14:09;;;;;;;2.35;2.15;;;30.00;41.50;;;;;;4984929;28;20181;-76
2022/04/06 10:16:36;;;;;;;2.38;2.28;;;30.80;39.60;;;;;;4989793;28;20236;-75
2022/04/06 10:19:05;;;;;;;3.13;2.30;;;31.30;38.90;;;;;;4984892;28;20276;-75
2022/04/06 10:21:59;;;;;;;2.25;2.15;;;31.60;41.70;;;;;;4988615;28;20185;-76
2022/04/06 10:24:54;;;;;;;1.98;1.85;;;32.00;43.00;;;;;;4989574;28;20276;-74
2022/04/06 10:27:23;;;;;;;1.38;1.38;;;32.50;39.80;;;;;;4990914;28;20173;-74
2022/04/06 10:30:09;;;;;;;1.45;1.45;;;32.90;39.00;;;;;;4992524;28;20180;-74
2022/04/06 10:32:49;;;;;;;1.77;1.67;;;33.00;40.20;;;;;;5021794;28;20190;-73
2022/04/06 10:35:30;;;;;;;1.50;1.50;;;33.10;37.90;;;;;;4995558;28;20170;-73
2022/04/06 10:37:56;;;;;;;1.60;1.50;;;32.80;38.00;;;;;;4989410;28;20185;-74
2022/04/06 10:40:23;;;;;;;1.88;1.77;;;32.50;37.00;;;;;;4989730;28;20697;-74
2022/04/06 10:42:49;;;;;;;2.00;1.90;;;32.10;38.60;;;;;;4992647;28;20197;-74
2022/04/06 10:45:29;;;;;;;2.00;2.00;;;32.00;38.80;;;;;;4992575;28;20183;-74
2022/04/06 10:48:15;;;;;;;2.30;2.22;;;31.90;37.50;;;;;;4993954;28;20300;-75
2022/04/06 10:50:45;;;;;;;2.60;2.45;;;31.90;39.20;;;;;;4988969;28;20201;-73
2022/04/06 10:53:22;;;;;;;2.65;1.85;;;32.00;38.60;;;;;;4998173;28;20180;-74
2022/04/06 10:56:12;;;;;;;1.92;1.83;;;32.30;40.80;;;;;;4996830;28;20205;-75
2022/04/06 10:58:56;;;;;;;1.80;1.70;;;32.60;40.30;;;;;;4998049;28;20497;-73
2022/04/06 11:01:32;;;;;;;5.10;1.67;;;33.00;39.30;;;;;;4998175;28;20193;-74
2022/04/06 11:04:24;;;;;;;1.77;1.67;;;33.40;40.00;;;;;;4998723;28;20181;-74
2022/04/06 11:06:56;;;;;;;2.38;2.25;;;33.80;39.60;;;;;;4995238;28;20265;-73
2022/04/06 11:12:25;;;;;;;2.95;1.95;;;34.30;37.70;;;;;;4996914;28;20263;-74
2022/04/06 11:14:59;;;;;;;2.72;2.17;;;34.40;37.40;;;;;;4998263;28;20189;-74
2022/04/06 11:17:44;;;;;;;2.13;2.03;;;34.70;37.50;;;;;;4994367;28;20188;-75
2022/04/06 11:20:28;;;;;;;2.17;2.08;;;34.70;37.60;;;;;;4998454;28;20595;-74
2022/04/06 11:22:55;;;;;;;2.58;1.90;;;34.70;38.10;;;;;;4995343;28;20734;-74
2022/04/06 11:25:23;;;;;;;2.45;2.00;;;34.80;37.40;;;;;;4996240;28;20193;-74
2022/04/06 11:27:49;;;;;;;2.22;1.60;;;34.50;35.70;;;;;;4998074;28;20224;-74
2022/04/06 11:30:20;;;;;;;1.70;1.60;;;34.50;36.00;;;;;;4997029;28;20196;-74
2022/04/06 11:32:54;;;;;;;2.25;2.00;;;34.40;36.40;;;;;;4996478;28;20185;-74
2022/04/06 11:35:26;;;;;;;2.28;1.67;;;34.30;36.20;;;;;;4996656;28;20180;-75
2022/04/06 11:37:52;;;;;;;1.80;1.70;;;34.40;38.40;;;;;;4990041;28;20253;-75
2022/04/06 11:40:22;;;;;;;2.80;1.88;;;34.70;36.10;;;;;;4994145;28;20208;-75
2022/04/06 11:42:49;;;;;;;3.50;2.28;;;34.60;37.90;;;;;;4992440;28;20192;-75
2022/04/06 11:45:20;;;;;;;3.53;2.35;;;34.80;36.90;;;;;;4999361;28;20248;-75
2022/04/06 11:47:53;;;;;;;3.30;2.30;;;34.80;36.00;;;;;;4992905;28;20365;-74
2022/04/06 11:50:19;;;;;;;3.85;1.98;;;35.00;38.70;;;;;;5026826;28;20196;-75
2022/04/06 11:52:45;;;;;;;4.03;2.15;;;35.10;37.00;;;;;;4996935;28;20279;-75
2022/04/06 11:55:11;;;;;;;2.40;2.30;;;35.30;37.80;;;;;;4996471;28;20238;-74
2022/04/06 11:57:38;;;;;;;2.53;2.28;;;35.50;36.00;;;;;;4991201;28;20185;-75
2022/04/06 12:00:11;;;;;;;3.05;1.92;;;35.60;36.00;;;;;;4996601;28;20732;-75
2022/04/06 12:02:55;;;;;;;3.92;2.30;;;35.80;37.10;;;;;;4991576;28;21039;-74
2022/04/06 12:05:23;;;;;;;4.65;2.40;;;35.90;35.90;;;;;;4988279;28;20224;-75
2022/04/06 12:08:05;;;;;;;1.85;1.77;;;35.90;38.70;;;;;;4995491;28;20802;-74
2022/04/06 12:10:31;;;;;;;2.88;2.25;;;35.90;36.70;;;;;;4993175;28;20188;-74
2022/04/06 12:12:57;;;;;;;2.35;2.10;;;36.20;37.20;;;;;;4994006;28;20184;-74
2022/04/06 12:15:23;;;;;;;3.30;2.10;;;36.00;36.70;;;;;;4995221;28;20272;-74
2022/04/06 12:17:49;;;;;;;3.35;2.50;;;36.10;36.30;;;;;;4994783;28;20284;-75
2022/04/06 12:20:28;;;;;;;3.03;2.40;;;36.10;38.30;;;;;;4996450;28;20227;-74
2022/04/06 12:23:01;;;;;;;1.75;1.65;;;36.00;34.90;;;;;;4989592;28;20239;-75
2022/04/06 12:25:32;;;;;;;2.10;1.83;;;35.90;35.20;;;;;;5009344;28;20684;-75
2022/04/06 12:28:21;;;;;;;2.13;2.05;;;35.70;35.80;;;;;;4993522;28;20687;-74
2022/04/06 12:31:00;;;;;;;2.47;2.10;;;35.60;35.40;;;;;;4993154;28;20180;-74
2022/04/06 12:33:46;;;;;;;1.85;1.75;;;35.70;37.20;;;;;;4994533;28;20181;-74
2022/04/06 12:36:30;;;;;;;1.80;1.75;;;36.00;34.80;;;;;;4992194;28;20268;-74
2022/04/06 12:38:59;;;;;;;2.97;2.22;;;35.80;35.40;;;;;;4993956;28;20220;-74
2022/04/06 12:41:26;;;;;;;4.38;2.17;;;35.50;35.70;;;;;;4994805;28;20259;-74
2022/04/06 12:43:56;;;;;;;2.38;2.17;;;35.30;36.20;;;;;;4991963;28;20185;-74
2022/04/06 12:46:42;;;;;;;2.03;1.80;;;35.20;35.60;;;;;;4995977;28;20251;-75
2022/04/06 12:49:37;;;;;;;1.70;1.70;;;34.90;36.40;;;;;;5020545;28;20730;-75
2022/04/06 12:52:25;;;;;;;1.92;1.88;;;34.80;36.00;;;;;;4993697;28;20211;-74
2022/04/06 12:55:10;;;;;;;2.08;2.08;;;34.80;35.90;;;;;;4995205;28;20180;-75
2022/04/06 12:57:37;;;;;;;2.00;1.90;;;34.80;36.10;;;;;;4990201;28;20219;-74
2022/04/06 13:00:10;;;;;;;2.05;1.95;;;34.90;35.60;;;;;;4998112;28;20191;-75
2022/04/06 13:02:49;;;;;;;2.65;2.10;;;35.10;37.90;;;;;;4992837;28;20180;-75
2022/04/06 13:05:20;;;;;;;2.00;1.90;;;35.40;35.60;;;;;;4994898;28;20694;-75
2022/04/06 13:07:52;;;;;;;2.22;1.77;;;35.60;35.60;;;;;;4994769;28;20219;-74
2022/04/06 13:10:26;;;;;;;2.38;2.17;;;35.70;35.40;;;;;;4993435;28;20180;-75